AKU603 NZCH-NZAA
Flight info
| Callsign | AKU603 |
|---|---|
| Flight time | 1h 9m |
| Altitude | 35000 |
| Route | GLENN Y175 OMKUN Y655 POKOM Q277 DAVEE |
| Aircraft | B77L/H-SDE1E2E3FGHIJ2J3J4J5M1RWXY/LB1D1 |
Departure
| Time | 2026-05-04 04:59 |
|---|---|
| Airport | Christchurch International Airport (NZCH) |
Arrival
| Time | 2026-05-04 06:08 |
|---|---|
| Airport | Auckland International Airport (NZAA) |
| Time | Latitude | Longitude | Altitude | Speed | Heading |
|---|---|---|---|---|---|
| 2026-05-04 04:51 | -43.48464 | 172.54221 | 112 ft | 0 kts | 39° |
| 2026-05-04 04:56 | -43.48460 | 172.54226 | 109 ft | 5 kts | 39° |
| 2026-05-04 04:56 | -43.48355 | 172.54242 | 110 ft | 25 kts | 2° |
| 2026-05-04 04:56 | -43.48208 | 172.54352 | 113 ft | 25 kts | 40° |
| 2026-05-04 04:56 | -43.48075 | 172.54506 | 109 ft | 25 kts | 40° |
| 2026-05-04 04:57 | -43.47940 | 172.54662 | 109 ft | 25 kts | 40° |
| 2026-05-04 04:57 | -43.47799 | 172.54824 | 107 ft | 27 kts | 40° |
| 2026-05-04 04:57 | -43.47696 | 172.54919 | 104 ft | 8 kts | 358° |
| 2026-05-04 04:57 | -43.47579 | 172.54884 | 105 ft | 27 kts | 339° |
| 2026-05-04 04:58 | -43.47547 | 172.54769 | 104 ft | 11 kts | 216° |
| 2026-05-04 04:58 | -43.47605 | 172.54705 | 104 ft | 11 kts | 220° |
| 2026-05-04 04:58 | -43.47835 | 172.54439 | 112 ft | 99 kts | 219° |
| 2026-05-04 04:58 | -43.48655 | 172.53494 | 272 ft | 197 kts | 219° |
| 2026-05-04 04:59 | -43.49725 | 172.52292 | 1687 ft | 192 kts | 221° |
| 2026-05-04 04:59 | -43.50559 | 172.50896 | 2736 ft | 183 kts | 237° |
| 2026-05-04 04:59 | -43.51265 | 172.49373 | 3325 ft | 203 kts | 236° |
| 2026-05-04 04:59 | -43.52122 | 172.47642 | 3641 ft | 235 kts | 236° |
| 2026-05-04 05:00 | -43.53073 | 172.45746 | 4367 ft | 244 kts | 236° |
| 2026-05-04 05:00 | -43.54062 | 172.43777 | 5198 ft | 253 kts | 236° |
| 2026-05-04 05:00 | -43.54530 | 172.39015 | 6842 ft | 272 kts | 290° |
| 2026-05-04 05:01 | -43.53447 | 172.36853 | 7747 ft | 279 kts | 318° |
| 2026-05-04 05:01 | -43.51746 | 172.35567 | 8752 ft | 283 kts | 344° |
| 2026-05-04 05:01 | -43.49779 | 172.35454 | 9714 ft | 289 kts | 11° |
| 2026-05-04 05:01 | -43.47937 | 172.36599 | 10548 ft | 299 kts | 38° |
| 2026-05-04 05:02 | -43.46598 | 172.38920 | 10875 ft | 328 kts | 66° |
| 2026-05-04 05:02 | -43.46041 | 172.42085 | 11076 ft | 353 kts | 81° |
| 2026-05-04 05:02 | -43.45620 | 172.45548 | 11386 ft | 379 kts | 78° |
| 2026-05-04 05:02 | -43.45007 | 172.49123 | 12207 ft | 388 kts | 75° |
| 2026-05-04 05:03 | -43.44252 | 172.52713 | 13242 ft | 394 kts | 72° |
| 2026-05-04 05:03 | -43.43395 | 172.56312 | 14299 ft | 394 kts | 67° |
| 2026-05-04 05:04 | -43.37161 | 172.63197 | 16843 ft | 405 kts | 16° |
| 2026-05-04 05:04 | -43.34440 | 172.64358 | 17660 ft | 414 kts | 15° |
| 2026-05-04 05:04 | -43.31697 | 172.65480 | 18565 ft | 418 kts | 15° |
| 2026-05-04 05:06 | -43.12935 | 172.73392 | 23803 ft | 448 kts | 16° |
| 2026-05-04 05:06 | -43.09940 | 172.74677 | 24487 ft | 452 kts | 16° |
| 2026-05-04 05:06 | -43.06925 | 172.75969 | 25137 ft | 456 kts | 16° |
| 2026-05-04 05:07 | -43.03885 | 172.77269 | 25783 ft | 460 kts | 16° |
| 2026-05-04 05:07 | -43.00819 | 172.78579 | 26433 ft | 463 kts | 16° |
| 2026-05-04 05:07 | -42.97727 | 172.79899 | 27054 ft | 467 kts | 16° |
| 2026-05-04 05:09 | -42.72437 | 172.92057 | 31415 ft | 491 kts | 20° |
| 2026-05-04 05:09 | -42.69257 | 172.93728 | 31972 ft | 490 kts | 20° |
| 2026-05-04 05:10 | -42.66076 | 172.95381 | 32510 ft | 489 kts | 20° |
| 2026-05-04 05:10 | -42.62886 | 172.97028 | 33016 ft | 489 kts | 20° |
| 2026-05-04 05:10 | -42.59702 | 172.98664 | 33511 ft | 489 kts | 20° |
| 2026-05-04 05:10 | -42.56522 | 173.00294 | 34018 ft | 489 kts | 20° |
| 2026-05-04 05:11 | -42.53338 | 173.01924 | 34518 ft | 488 kts | 20° |
| 2026-05-04 05:11 | -42.50158 | 173.03552 | 34933 ft | 488 kts | 20° |
| 2026-05-04 05:11 | -42.46982 | 173.05176 | 35332 ft | 488 kts | 20° |
| 2026-05-04 05:11 | -42.43791 | 173.06807 | 35446 ft | 492 kts | 20° |
| 2026-05-04 05:12 | -42.37411 | 173.10063 | 35441 ft | 488 kts | 20° |
| 2026-05-04 05:12 | -42.31055 | 173.13301 | 35435 ft | 488 kts | 20° |
| 2026-05-04 05:13 | -42.24702 | 173.16529 | 35434 ft | 488 kts | 20° |
| 2026-05-04 05:13 | -42.19422 | 173.19207 | 35435 ft | 487 kts | 20° |
| 2026-05-04 05:14 | -42.12044 | 173.22942 | 35431 ft | 487 kts | 20° |
| 2026-05-04 05:14 | -42.05692 | 173.26149 | 35436 ft | 487 kts | 20° |
| 2026-05-04 05:15 | -41.99354 | 173.29343 | 35438 ft | 487 kts | 20° |
| 2026-05-04 05:15 | -41.94059 | 173.32006 | 35442 ft | 487 kts | 20° |
| 2026-05-04 05:16 | -41.87666 | 173.35215 | 35446 ft | 488 kts | 20° |
| 2026-05-04 05:16 | -41.81292 | 173.38407 | 35451 ft | 489 kts | 20° |
| 2026-05-04 05:17 | -41.74922 | 173.41593 | 35462 ft | 489 kts | 20° |
| 2026-05-04 05:17 | -41.68546 | 173.44772 | 35469 ft | 489 kts | 20° |
| 2026-05-04 05:18 | -41.62162 | 173.47942 | 35471 ft | 490 kts | 20° |
| 2026-05-04 05:18 | -41.55775 | 173.51104 | 35472 ft | 490 kts | 20° |
| 2026-05-04 05:19 | -41.49387 | 173.54263 | 35479 ft | 489 kts | 20° |
| 2026-05-04 05:19 | -41.43025 | 173.57404 | 35476 ft | 488 kts | 20° |
| 2026-05-04 05:20 | -41.36662 | 173.60538 | 35487 ft | 487 kts | 20° |
| 2026-05-04 05:20 | -41.30313 | 173.63659 | 35482 ft | 486 kts | 20° |
| 2026-05-04 05:21 | -41.23978 | 173.66767 | 35491 ft | 485 kts | 20° |
| 2026-05-04 05:21 | -41.17638 | 173.69870 | 35486 ft | 485 kts | 20° |
| 2026-05-04 05:22 | -41.11346 | 173.72944 | 35499 ft | 485 kts | 20° |
| 2026-05-04 05:22 | -41.05014 | 173.76031 | 35493 ft | 485 kts | 20° |
| 2026-05-04 05:23 | -40.98687 | 173.79109 | 35498 ft | 484 kts | 21° |
| 2026-05-04 05:23 | -40.92357 | 173.82183 | 35496 ft | 484 kts | 21° |
| 2026-05-04 05:24 | -40.86027 | 173.85250 | 35497 ft | 484 kts | 20° |
| 2026-05-04 05:24 | -40.79694 | 173.88313 | 35498 ft | 484 kts | 21° |
| 2026-05-04 05:25 | -40.73362 | 173.91368 | 35505 ft | 485 kts | 20° |
| 2026-05-04 05:25 | -40.67002 | 173.94431 | 35503 ft | 488 kts | 20° |
| 2026-05-04 05:26 | -40.60607 | 173.97504 | 35503 ft | 489 kts | 20° |
| 2026-05-04 05:26 | -40.54203 | 174.00576 | 35507 ft | 490 kts | 20° |
| 2026-05-04 05:28 | -40.28613 | 174.12792 | 35516 ft | 489 kts | 20° |
| 2026-05-04 05:29 | -40.22224 | 174.15838 | 35521 ft | 488 kts | 20° |
| 2026-05-04 05:29 | -40.15848 | 174.18875 | 35526 ft | 487 kts | 20° |
| 2026-05-04 05:31 | -39.90385 | 174.30915 | 35529 ft | 486 kts | 20° |
| 2026-05-04 05:32 | -39.84015 | 174.33895 | 35526 ft | 486 kts | 20° |
| 2026-05-04 05:33 | -39.74467 | 174.38357 | 35539 ft | 485 kts | 20° |
| 2026-05-04 05:33 | -39.68112 | 174.41320 | 35541 ft | 485 kts | 20° |
| 2026-05-04 05:34 | -39.61796 | 174.44260 | 35536 ft | 485 kts | 20° |
| 2026-05-04 05:34 | -39.55404 | 174.47230 | 35538 ft | 485 kts | 20° |
| 2026-05-04 05:35 | -39.49055 | 174.50022 | 35540 ft | 485 kts | 15° |
| 2026-05-04 05:35 | -39.42428 | 174.51585 | 35547 ft | 485 kts | 8° |
| 2026-05-04 05:36 | -39.35746 | 174.52783 | 35544 ft | 485 kts | 8° |
| 2026-05-04 05:36 | -39.29071 | 174.54033 | 35544 ft | 485 kts | 8° |
| 2026-05-04 05:37 | -39.22399 | 174.55317 | 35541 ft | 485 kts | 8° |
| 2026-05-04 05:37 | -39.15723 | 174.56602 | 35540 ft | 485 kts | 8° |
| 2026-05-04 05:38 | -39.05718 | 174.58507 | 35543 ft | 484 kts | 8° |
| 2026-05-04 05:38 | -38.99044 | 174.59768 | 35537 ft | 484 kts | 8° |
| 2026-05-04 05:39 | -38.89215 | 174.61624 | 35541 ft | 484 kts | 8° |
| 2026-05-04 05:40 | -38.81427 | 174.63092 | 35540 ft | 483 kts | 8° |
| 2026-05-04 05:40 | -38.78106 | 174.63717 | 35203 ft | 480 kts | 8° |
| 2026-05-04 05:40 | -38.74770 | 174.64344 | 34753 ft | 475 kts | 8° |
| 2026-05-04 05:41 | -38.71565 | 174.64946 | 34313 ft | 470 kts | 8° |
| 2026-05-04 05:41 | -38.68341 | 174.65551 | 33829 ft | 466 kts | 8° |
| 2026-05-04 05:41 | -38.65146 | 174.66149 | 33354 ft | 463 kts | 8° |
| 2026-05-04 05:41 | -38.61973 | 174.66744 | 32888 ft | 456 kts | 8° |
| 2026-05-04 05:42 | -38.58881 | 174.67322 | 32400 ft | 443 kts | 8° |
| 2026-05-04 05:42 | -38.55872 | 174.67885 | 31932 ft | 432 kts | 8° |
| 2026-05-04 05:42 | -38.52910 | 174.68438 | 31489 ft | 427 kts | 8° |
| 2026-05-04 05:42 | -38.49979 | 174.68985 | 31057 ft | 425 kts | 8° |
| 2026-05-04 05:43 | -38.47052 | 174.69531 | 30629 ft | 423 kts | 8° |
| 2026-05-04 05:43 | -38.44151 | 174.70072 | 30121 ft | 420 kts | 8° |
| 2026-05-04 05:43 | -38.41265 | 174.70609 | 29612 ft | 418 kts | 8° |
| 2026-05-04 05:45 | -38.21564 | 174.74267 | 26344 ft | 397 kts | 8° |
| 2026-05-04 05:45 | -38.18864 | 174.74766 | 25877 ft | 388 kts | 8° |
| 2026-05-04 05:47 | -38.00334 | 174.78186 | 22761 ft | 376 kts | 8° |
| 2026-05-04 05:47 | -37.97766 | 174.78659 | 22290 ft | 373 kts | 8° |
| 2026-05-04 05:47 | -37.95194 | 174.79132 | 21820 ft | 370 kts | 8° |
| 2026-05-04 05:48 | -37.92654 | 174.79598 | 21366 ft | 368 kts | 8° |
| 2026-05-04 05:48 | -37.90132 | 174.80061 | 20922 ft | 365 kts | 8° |
| 2026-05-04 05:48 | -37.87630 | 174.80504 | 20472 ft | 362 kts | 7° |
| 2026-05-04 05:48 | -37.85127 | 174.80686 | 20025 ft | 359 kts | 1° |
| 2026-05-04 05:49 | -37.82641 | 174.80717 | 19190 ft | 357 kts | 1° |
| 2026-05-04 05:49 | -37.80159 | 174.80735 | 17915 ft | 356 kts | 1° |
| 2026-05-04 05:49 | -37.77676 | 174.80753 | 16400 ft | 357 kts | 1° |
| 2026-05-04 05:49 | -37.75175 | 174.80778 | 14900 ft | 361 kts | 1° |
| 2026-05-04 05:51 | -37.58040 | 174.81010 | 12040 ft | 336 kts | 1° |
| 2026-05-04 05:51 | -37.55714 | 174.81040 | 11634 ft | 332 kts | 1° |
| 2026-05-04 05:52 | -37.53419 | 174.81069 | 11235 ft | 327 kts | 2° |
| 2026-05-04 05:52 | -37.51162 | 174.81097 | 10845 ft | 323 kts | 2° |
| 2026-05-04 05:52 | -37.48925 | 174.81125 | 10538 ft | 317 kts | 2° |
| 2026-05-04 05:52 | -37.46763 | 174.81152 | 10387 ft | 305 kts | 2° |
| 2026-05-04 05:53 | -37.44708 | 174.81177 | 10232 ft | 293 kts | 2° |
| 2026-05-04 05:54 | -37.31791 | 174.81344 | 8557 ft | 265 kts | 3° |
| 2026-05-04 05:55 | -37.29926 | 174.81368 | 8262 ft | 269 kts | 3° |
| 2026-05-04 05:55 | -37.28063 | 174.81391 | 7969 ft | 266 kts | 3° |
| 2026-05-04 05:55 | -37.26239 | 174.81456 | 7667 ft | 257 kts | 11° |
| 2026-05-04 05:55 | -37.24601 | 174.82256 | 7421 ft | 252 kts | 38° |
| 2026-05-04 05:56 | -37.23416 | 174.83851 | 7195 ft | 252 kts | 60° |
| 2026-05-04 05:56 | -37.22815 | 174.85911 | 6963 ft | 253 kts | 82° |
| 2026-05-04 05:56 | -37.22927 | 174.88102 | 6709 ft | 255 kts | 105° |
| 2026-05-04 05:56 | -37.23780 | 174.90055 | 6455 ft | 259 kts | 130° |
| 2026-05-04 05:57 | -37.25235 | 174.91404 | 6211 ft | 264 kts | 152° |
| 2026-05-04 05:57 | -37.27013 | 174.91929 | 5959 ft | 265 kts | 176° |
| 2026-05-04 05:57 | -37.28851 | 174.91898 | 5716 ft | 263 kts | 178° |
| 2026-05-04 05:57 | -37.30679 | 174.91849 | 5463 ft | 261 kts | 184° |
| 2026-05-04 05:58 | -37.32341 | 174.90987 | 5243 ft | 262 kts | 221° |
| 2026-05-04 05:58 | -37.33066 | 174.89795 | 5162 ft | 260 kts | 246° |
| 2026-05-04 05:58 | -37.33295 | 174.87570 | 5104 ft | 263 kts | 283° |
| 2026-05-04 05:58 | -37.32447 | 174.85568 | 5059 ft | 263 kts | 319° |
| 2026-05-04 05:59 | -37.30364 | 174.84171 | 5017 ft | 255 kts | 333° |
| 2026-05-04 05:59 | -37.29445 | 174.83198 | 5010 ft | 260 kts | 309° |
| 2026-05-04 05:59 | -37.28464 | 174.81290 | 5034 ft | 263 kts | 303° |
| 2026-05-04 05:59 | -37.27472 | 174.79322 | 5030 ft | 269 kts | 304° |
| 2026-05-04 06:00 | -37.26461 | 174.77353 | 5017 ft | 266 kts | 304° |
| 2026-05-04 06:00 | -37.25465 | 174.75421 | 5007 ft | 262 kts | 305° |
| 2026-05-04 06:00 | -37.24474 | 174.73508 | 5004 ft | 261 kts | 305° |
| 2026-05-04 06:00 | -37.23483 | 174.71598 | 5004 ft | 261 kts | 305° |
| 2026-05-04 06:01 | -37.22489 | 174.69685 | 5014 ft | 262 kts | 305° |
| 2026-05-04 06:01 | -37.21491 | 174.67767 | 5015 ft | 263 kts | 305° |
| 2026-05-04 06:03 | -37.13572 | 174.56101 | 3955 ft | 235 kts | 343° |
| 2026-05-04 06:03 | -37.12063 | 174.55463 | 3837 ft | 223 kts | 343° |
| 2026-05-04 06:05 | -37.05884 | 174.61621 | 2617 ft | 167 kts | 71° |
| 2026-05-04 06:05 | -37.05190 | 174.64153 | 2196 ft | 148 kts | 72° |
| 2026-05-04 06:05 | -37.04853 | 174.65377 | 1982 ft | 149 kts | 72° |
| 2026-05-04 06:06 | -37.04518 | 174.66599 | 1779 ft | 148 kts | 71° |
| 2026-05-04 06:06 | -37.04184 | 174.67812 | 1565 ft | 147 kts | 72° |
| 2026-05-04 06:06 | -37.03850 | 174.69026 | 1370 ft | 148 kts | 71° |
| 2026-05-04 06:06 | -37.03515 | 174.70242 | 1160 ft | 148 kts | 71° |
| 2026-05-04 06:07 | -37.03181 | 174.71457 | 962 ft | 148 kts | 72° |
| 2026-05-04 06:07 | -37.02845 | 174.72674 | 785 ft | 149 kts | 71° |
| 2026-05-04 06:07 | -37.02506 | 174.73909 | 584 ft | 150 kts | 71° |
| 2026-05-04 06:07 | -37.02168 | 174.75134 | 370 ft | 147 kts | 71° |
| 2026-05-04 06:08 | -37.01835 | 174.76343 | 196 ft | 148 kts | 71° |
| 2026-05-04 06:08 | -37.01500 | 174.77562 | 41 ft | 144 kts | 72° |
| 2026-05-04 06:08 | -37.01217 | 174.78587 | 30 ft | 101 kts | 71° |
| 2026-05-04 06:08 | -37.01074 | 174.79097 | 30 ft | 33 kts | 71° |
| 2026-05-04 06:09 | -37.00990 | 174.79401 | 30 ft | 37 kts | 69° |
| 2026-05-04 06:09 | -37.00847 | 174.79653 | 30 ft | 31 kts | 44° |
| 2026-05-04 06:11 | -37.00932 | 174.78912 | 30 ft | 20 kts | 252° |
| 2026-05-04 06:11 | -37.00978 | 174.78747 | 30 ft | 20 kts | 250° |
| 2026-05-04 06:13 | -37.01039 | 174.77807 | 30 ft | 13 kts | 284° |
| 2026-05-04 06:14 | -37.00958 | 174.77757 | 30 ft | 0 kts | 342° |